createdAt,value
2022-10-05T00:00:59.934Z,98687.69
2022-10-05T00:06:02.076Z,98683.59
2022-10-05T00:11:07.924Z,98672.25
2022-10-05T00:16:19.983Z,98657.94
2022-10-05T00:21:33.367Z,98671.06
2022-10-05T00:26:35.460Z,98672.38
2022-10-05T00:31:37.630Z,98678.47
2022-10-05T00:36:40.465Z,98682.25
2022-10-05T00:41:42.468Z,98670.03
2022-10-05T00:46:47.626Z,98687.22
2022-10-05T00:52:04.844Z,98676.84
2022-10-05T00:57:21.579Z,98674.69
2022-10-05T01:02:45.179Z,98668.63
2022-10-05T01:08:02.423Z,98679.31
2022-10-05T01:13:23.200Z,98675.22
2022-10-05T01:18:40.674Z,98669.66
2022-10-05T01:24:07.602Z,98682.84
2022-10-05T01:29:21.415Z,98676.84
2022-10-05T01:34:34.265Z,98677.44
2022-10-05T01:39:53.735Z,98681.13
2022-10-05T01:45:06.038Z,98682.97
2022-10-05T01:50:11.756Z,98688.47
2022-10-05T01:55:38.414Z,98683.19
2022-10-05T02:00:52.929Z,98684.88
2022-10-05T02:06:23.226Z,98678.19
2022-10-05T02:11:26.314Z,98691.94
2022-10-05T02:16:28.516Z,98685.84
2022-10-05T02:21:34.566Z,98693.22
2022-10-05T02:26:39.998Z,98698.25
2022-10-05T02:32:12.863Z,98695.97
2022-10-05T02:37:39.953Z,98703.22
2022-10-05T02:42:55.018Z,98689.59
2022-10-05T02:48:11.885Z,98699.38
2022-10-05T02:53:26.731Z,98708.88
2022-10-05T02:58:35.014Z,98709.59
2022-10-05T03:03:47.487Z,98694.44
2022-10-05T03:09:05.343Z,98700.81
2022-10-05T03:14:22.454Z,98707.94
2022-10-05T03:19:52.865Z,98707.19
2022-10-05T03:25:17.073Z,98702.19
2022-10-05T03:30:22.938Z,98703.03
2022-10-05T03:35:33.043Z,98717.78
2022-10-05T03:40:48.597Z,98726.66
2022-10-05T03:46:03.046Z,98732.41
2022-10-05T03:51:13.203Z,98722.81
2022-10-05T03:56:33.618Z,98723.34
2022-10-05T04:01:48.595Z,98728.81
2022-10-05T04:06:53.502Z,98726.63
2022-10-05T04:12:25.903Z,98729.63
2022-10-05T04:17:35.817Z,98727.28
2022-10-05T04:22:44.274Z,98734.13
2022-10-05T04:28:11.656Z,98733.91
2022-10-05T04:33:16.027Z,98741.69
2022-10-05T04:38:48.297Z,98745.38
2022-10-05T04:44:02.047Z,98742.34
2022-10-05T04:49:32.208Z,98745.53
2022-10-05T04:54:46.464Z,98745.38
2022-10-05T04:59:54.749Z,98751.06
2022-10-05T05:05:08.333Z,98749.19
2022-10-05T05:10:21.499Z,98762.34
2022-10-05T05:15:39.647Z,98760.53
2022-10-05T05:20:57.433Z,98754.84
2022-10-05T05:26:29.038Z,98753.31
2022-10-05T05:31:45.793Z,98752.41
2022-10-05T05:37:24.498Z,98743.44
2022-10-05T05:42:47.352Z,98744.22
2022-10-05T05:47:54.095Z,98752.69
2022-10-05T05:53:09.828Z,98757.03
2022-10-05T05:58:18.095Z,98766.63
2022-10-05T06:03:29.032Z,98769.91
2022-10-05T06:08:44.640Z,98767.13
2022-10-05T06:14:00.759Z,98768.78
2022-10-05T06:19:10.492Z,98770.03
2022-10-05T06:24:37.589Z,98777.50
2022-10-05T06:29:54.674Z,98780.94
2022-10-05T06:35:04.456Z,98777.69
2022-10-05T06:40:23.387Z,98797.69
2022-10-05T06:45:41.797Z,98804.53
2022-10-05T06:51:09.981Z,98805.88
2022-10-05T06:56:48.856Z,98819.66
2022-10-05T07:02:03.477Z,98826.53
2022-10-05T07:07:34.942Z,98809.69
2022-10-05T07:12:55.479Z,98826.72
2022-10-05T07:18:22.559Z,98832.88
2022-10-05T07:23:51.052Z,98842.00
2022-10-05T07:29:15.227Z,98834.97
2022-10-05T07:34:22.944Z,98843.75
2022-10-05T07:39:59.204Z,98854.28
2022-10-05T07:45:14.945Z,98857.91
2022-10-05T07:50:25.900Z,98866.00
2022-10-05T07:55:37.079Z,98865.03
2022-10-05T08:00:49.204Z,98875.91
2022-10-05T08:05:52.020Z,98884.69
2022-10-05T08:11:22.028Z,98896.84
2022-10-05T08:16:31.247Z,98887.47
2022-10-05T08:21:41.514Z,98890.97
2022-10-05T08:27:04.339Z,98882.69
2022-10-05T08:32:35.687Z,98895.88
2022-10-05T08:37:41.686Z,98893.25
2022-10-05T08:43:17.575Z,98899.63
2022-10-05T08:48:34.572Z,98900.31
2022-10-05T08:54:16.694Z,98906.22
2022-10-05T08:59:45.039Z,98898.94
2022-10-05T09:05:01.087Z,98888.19
2022-10-05T09:10:37.411Z,98911.50
2022-10-05T09:15:42.546Z,98916.13
2022-10-05T09:21:13.096Z,98919.38
2022-10-05T09:26:44.195Z,98936.13
2022-10-05T09:31:49.008Z,98942.09
2022-10-05T09:37:14.194Z,98942.81
2022-10-05T09:42:49.726Z,98930.06
2022-10-05T09:48:23.854Z,98956.75
2022-10-05T09:53:41.112Z,98951.81
2022-10-05T09:59:21.799Z,98951.19
2022-10-05T10:04:40.207Z,98964.88
2022-10-05T10:09:48.251Z,98966.97
2022-10-05T10:15:24.544Z,98963.91
2022-10-05T10:20:38.045Z,98970.94
2022-10-05T10:25:43.114Z,98972.13
2022-10-05T10:31:00.388Z,98980.63
2022-10-05T10:36:18.430Z,98987.81
2022-10-05T10:41:39.186Z,98984.53
2022-10-05T10:47:19.798Z,99000.09
2022-10-05T10:52:40.443Z,98991.44
2022-10-05T10:58:09.364Z,98991.69
2022-10-05T11:03:33.180Z,99002.25
2022-10-05T11:09:23.605Z,99000.94
2022-10-05T11:15:07.100Z,99004.38
2022-10-05T11:20:58.075Z,99007.75
2022-10-05T11:26:27.550Z,99008.75
2022-10-05T11:31:39.420Z,99024.94
2022-10-05T11:37:05.787Z,99031.44
2022-10-05T11:42:29.324Z,99034.97
2022-10-05T11:48:04.467Z,99030.84
2022-10-05T11:53:24.503Z,99040.47
2022-10-05T11:58:33.377Z,99042.03
2022-10-05T12:03:41.175Z,99050.97
2022-10-05T12:09:03.883Z,99062.22
2022-10-05T12:14:16.673Z,99069.41
2022-10-05T12:19:29.905Z,99065.13
2022-10-05T12:25:06.655Z,99071.28
2022-10-05T12:30:15.060Z,99076.34
2022-10-05T12:35:47.995Z,99090.84
2022-10-05T12:41:00.274Z,99088.03
2022-10-05T12:46:17.889Z,99094.84
2022-10-05T12:51:35.530Z,99085.88
2022-10-05T12:56:50.775Z,99084.53
2022-10-05T13:02:05.817Z,99098.97
2022-10-05T13:07:17.733Z,99093.63
2022-10-05T13:12:36.297Z,99093.28
2022-10-05T13:17:49.406Z,99089.97
2022-10-05T13:23:02.721Z,99108.81
2022-10-05T13:28:19.453Z,99103.72
2022-10-05T13:33:53.443Z,99111.31
2022-10-05T13:39:00.043Z,99116.28
2022-10-05T13:44:09.251Z,99112.66
2022-10-05T13:55:41.301Z,99121.78
2022-10-05T14:01:08.975Z,99121.28
2022-10-05T14:06:13.943Z,99114.03
2022-10-05T14:11:31.713Z,99134.50
2022-10-05T14:16:35.752Z,99140.34
2022-10-05T14:21:52.533Z,99145.91
2022-10-05T14:26:57.368Z,99140.72
2022-10-05T14:32:02.635Z,99150.81
2022-10-05T14:37:19.060Z,99151.13
2022-10-05T14:42:28.836Z,99157.56
2022-10-05T14:47:32.320Z,99161.84
2022-10-05T14:52:35.857Z,99170.97
2022-10-05T14:57:48.148Z,99174.00
2022-10-05T15:02:50.213Z,99172.75
2022-10-05T15:07:59.089Z,99187.91
2022-10-05T15:13:17.757Z,99186.66
2022-10-05T15:18:23.050Z,99189.28
2022-10-05T15:23:42.882Z,99192.03
2022-10-05T15:29:09.805Z,99209.31
2022-10-05T15:34:27.629Z,99212.91
2022-10-05T15:39:39.431Z,99228.94
2022-10-05T15:44:59.184Z,99231.66
2022-10-05T15:50:15.835Z,99230.28
2022-10-05T15:55:27.908Z,99234.69
2022-10-05T16:00:33.771Z,99236.97
2022-10-05T16:05:57.337Z,99244.66
2022-10-05T16:11:00.091Z,99252.06
2022-10-05T16:16:16.241Z,99254.06
2022-10-05T16:21:27.443Z,99242.97
2022-10-05T16:26:44.743Z,99249.31
2022-10-05T16:32:08.511Z,99244.28
2022-10-05T16:37:26.029Z,99253.81
2022-10-05T16:42:28.303Z,99248.09
2022-10-05T16:48:01.110Z,99249.31
2022-10-05T16:53:14.629Z,99246.16
2022-10-05T16:58:37.817Z,99261.63
2022-10-05T17:03:57.252Z,99264.44
2022-10-05T17:09:05.371Z,99264.13
2022-10-05T17:14:37.965Z,99270.47
2022-10-05T17:19:47.055Z,99279.03
2022-10-05T17:25:11.216Z,99291.94
2022-10-05T17:30:38.988Z,99286.06
2022-10-05T17:35:53.682Z,99292.28
2022-10-05T17:41:19.681Z,99294.75
2022-10-05T17:46:46.039Z,99286.06
2022-10-05T17:52:21.105Z,99282.09
2022-10-05T17:57:27.895Z,99285.81
2022-10-05T18:02:36.619Z,99295.53
2022-10-05T18:07:41.034Z,99296.84
2022-10-05T18:13:11.483Z,99304.13
2022-10-05T18:18:32.840Z,99303.66
2022-10-05T18:23:37.129Z,99301.47
2022-10-05T18:28:47.265Z,99307.81
2022-10-05T18:33:56.910Z,99311.97
2022-10-05T18:39:06.796Z,99311.69
2022-10-05T18:44:47.604Z,99312.84
2022-10-05T18:50:02.279Z,99323.13
2022-10-05T18:55:22.618Z,99322.66
2022-10-05T19:00:25.948Z,99323.50
2022-10-05T19:06:08.308Z,99330.06
2022-10-05T19:11:38.690Z,99326.06
2022-10-05T19:17:05.934Z,99325.88
2022-10-05T19:22:08.222Z,99332.47
2022-10-05T19:27:38.077Z,99332.72
2022-10-05T19:32:50.224Z,99334.53
2022-10-05T19:38:02.678Z,99333.13
2022-10-05T19:43:14.360Z,99321.88
2022-10-05T19:48:28.510Z,99325.66
2022-10-05T19:53:38.404Z,99335.41
2022-10-05T19:58:40.473Z,99330.81
2022-10-05T20:03:47.923Z,99335.41
2022-10-05T20:08:52.613Z,99335.09
2022-10-05T20:13:57.375Z,99338.44
2022-10-05T20:19:18.206Z,99338.81
2022-10-05T20:24:28.764Z,99343.53
2022-10-05T20:29:40.553Z,99343.22
2022-10-05T20:34:44.762Z,99342.06
2022-10-05T20:39:48.063Z,99353.72
2022-10-05T20:44:55.796Z,99341.66
2022-10-05T20:49:58.912Z,99351.16
2022-10-05T20:55:01.859Z,99348.41
2022-10-05T21:00:06.379Z,99351.56
2022-10-05T21:05:09.187Z,99352.25
2022-10-05T21:10:11.683Z,99350.78
2022-10-05T21:15:14.115Z,99344.00
2022-10-05T21:34:05.632Z,99352.75
2022-10-05T21:39:16.745Z,99355.69
2022-10-05T21:44:19.054Z,99351.91
2022-10-05T21:49:21.715Z,99365.31
2022-10-05T21:54:24.411Z,99375.06
2022-10-05T21:59:29.634Z,99360.50
2022-10-05T22:04:31.787Z,99370.38
2022-10-05T22:09:33.855Z,99369.56
2022-10-05T22:14:35.944Z,99387.38
2022-10-05T22:19:37.863Z,99388.19
2022-10-05T22:24:40.017Z,99394.28
2022-10-05T22:29:42.308Z,99407.38
2022-10-05T22:34:44.399Z,99408.69
2022-10-05T22:39:46.554Z,99399.25
2022-10-05T22:44:48.606Z,99398.59
2022-10-05T22:49:50.519Z,99390.94
2022-10-05T22:54:52.582Z,99403.69
2022-10-05T22:59:54.512Z,99405.97
2022-10-05T23:04:56.572Z,99398.31
2022-10-05T23:09:59.199Z,99394.94
2022-10-05T23:15:02.033Z,99392.16
2022-10-05T23:20:08.608Z,99390.78
2022-10-05T23:25:10.750Z,99394.25
2022-10-05T23:30:13.739Z,99394.75
2022-10-05T23:35:15.932Z,99399.34
2022-10-05T23:40:18.275Z,99379.72
2022-10-05T23:45:20.338Z,99377.88
2022-10-05T23:50:25.003Z,99404.22
2022-10-05T23:55:27.063Z,99396.53
